sensor_id;sensor_type;location;lat;lon;timestamp;P1;durP1;ratioP1;P2;durP2;ratioP2
15925;SDS011;8062;53.882;10.642;2023-08-31T00:01:05;0.30;;;0.30;;
15925;SDS011;8062;53.882;10.642;2023-08-31T00:02:24;0.40;;;0.40;;
15925;SDS011;8062;53.882;10.642;2023-08-31T00:03:44;0.30;;;0.30;;
15925;SDS011;8062;53.882;10.642;2023-08-31T00:05:04;0.40;;;0.40;;
15925;SDS011;8062;53.882;10.642;2023-08-31T00:06:24;0.30;;;0.30;;
15925;SDS011;8062;53.882;10.642;2023-08-31T00:07:44;0.40;;;0.40;;
15925;SDS011;8062;53.882;10.642;2023-08-31T00:09:03;0.30;;;0.30;;
15925;SDS011;8062;53.882;10.642;2023-08-31T00:10:24;0.30;;;0.30;;
15925;SDS011;8062;53.882;10.642;2023-08-31T00:11:45;0.30;;;0.30;;
15925;SDS011;8062;53.882;10.642;2023-08-31T00:13:05;0.30;;;0.30;;
15925;SDS011;8062;53.882;10.642;2023-08-31T00:14:27;0.40;;;0.40;;
15925;SDS011;8062;53.882;10.642;2023-08-31T00:15:47;0.30;;;0.30;;
15925;SDS011;8062;53.882;10.642;2023-08-31T00:17:06;0.30;;;0.30;;
15925;SDS011;8062;53.882;10.642;2023-08-31T00:18:26;0.40;;;0.40;;
15925;SDS011;8062;53.882;10.642;2023-08-31T00:19:46;0.30;;;0.30;;
15925;SDS011;8062;53.882;10.642;2023-08-31T00:21:06;0.47;;;0.47;;
15925;SDS011;8062;53.882;10.642;2023-08-31T00:22:25;0.30;;;0.30;;
15925;SDS011;8062;53.882;10.642;2023-08-31T00:23:45;0.30;;;0.30;;
15925;SDS011;8062;53.882;10.642;2023-08-31T00:25:04;0.50;;;0.50;;
15925;SDS011;8062;53.882;10.642;2023-08-31T00:26:27;0.40;;;0.40;;
15925;SDS011;8062;53.882;10.642;2023-08-31T00:27:48;0.20;;;0.20;;
15925;SDS011;8062;53.882;10.642;2023-08-31T00:29:11;0.30;;;0.30;;
15925;SDS011;8062;53.882;10.642;2023-08-31T00:30:33;0.20;;;0.20;;
15925;SDS011;8062;53.882;10.642;2023-08-31T00:31:53;0.50;;;0.50;;
15925;SDS011;8062;53.882;10.642;2023-08-31T00:33:12;0.30;;;0.30;;
15925;SDS011;8062;53.882;10.642;2023-08-31T00:34:32;0.40;;;0.40;;
15925;SDS011;8062;53.882;10.642;2023-08-31T00:35:52;0.30;;;0.30;;
15925;SDS011;8062;53.882;10.642;2023-08-31T00:37:11;0.20;;;0.20;;
15925;SDS011;8062;53.882;10.642;2023-08-31T00:38:31;0.33;;;0.33;;
15925;SDS011;8062;53.882;10.642;2023-08-31T00:39:50;0.30;;;0.30;;
15925;SDS011;8062;53.882;10.642;2023-08-31T00:41:11;0.23;;;0.23;;
15925;SDS011;8062;53.882;10.642;2023-08-31T00:42:31;0.40;;;0.40;;
15925;SDS011;8062;53.882;10.642;2023-08-31T00:43:51;0.20;;;0.20;;
15925;SDS011;8062;53.882;10.642;2023-08-31T00:45:12;0.30;;;0.30;;
15925;SDS011;8062;53.882;10.642;2023-08-31T00:46:32;0.40;;;0.40;;
15925;SDS011;8062;53.882;10.642;2023-08-31T00:47:53;0.30;;;0.30;;
15925;SDS011;8062;53.882;10.642;2023-08-31T00:49:13;0.40;;;0.40;;
15925;SDS011;8062;53.882;10.642;2023-08-31T00:50:34;0.30;;;0.30;;
15925;SDS011;8062;53.882;10.642;2023-08-31T00:51:54;0.40;;;0.40;;
15925;SDS011;8062;53.882;10.642;2023-08-31T00:53:17;0.40;;;0.40;;
15925;SDS011;8062;53.882;10.642;2023-08-31T00:54:36;0.30;;;0.30;;
15925;SDS011;8062;53.882;10.642;2023-08-31T00:55:56;0.40;;;0.40;;
15925;SDS011;8062;53.882;10.642;2023-08-31T00:57:16;0.30;;;0.30;;
15925;SDS011;8062;53.882;10.642;2023-08-31T00:58:36;0.33;;;0.33;;
15925;SDS011;8062;53.882;10.642;2023-08-31T00:59:55;0.30;;;0.30;;
15925;SDS011;8062;53.882;10.642;2023-08-31T01:03:05;0.50;;;0.50;;
15925;SDS011;8062;53.882;10.642;2023-08-31T01:04:41;0.30;;;0.30;;
15925;SDS011;8062;53.882;10.642;2023-08-31T01:06:07;0.30;;;0.30;;
15925;SDS011;8062;53.882;10.642;2023-08-31T01:07:56;0.30;;;0.30;;
15925;SDS011;8062;53.882;10.642;2023-08-31T01:09:43;0.40;;;0.40;;
15925;SDS011;8062;53.882;10.642;2023-08-31T01:12:43;0.30;;;0.30;;
15925;SDS011;8062;53.882;10.642;2023-08-31T01:14:11;0.47;;;0.47;;
15925;SDS011;8062;53.882;10.642;2023-08-31T01:15:34;0.40;;;0.40;;
15925;SDS011;8062;53.882;10.642;2023-08-31T01:16:56;0.30;;;0.30;;
15925;SDS011;8062;53.882;10.642;2023-08-31T01:18:17;0.30;;;0.30;;
15925;SDS011;8062;53.882;10.642;2023-08-31T01:19:48;0.40;;;0.40;;
15925;SDS011;8062;53.882;10.642;2023-08-31T01:21:28;0.30;;;0.30;;
15925;SDS011;8062;53.882;10.642;2023-08-31T01:22:55;0.37;;;0.37;;
15925;SDS011;8062;53.882;10.642;2023-08-31T01:24:22;0.30;;;0.30;;
15925;SDS011;8062;53.882;10.642;2023-08-31T01:25:42;0.40;;;0.40;;
15925;SDS011;8062;53.882;10.642;2023-08-31T01:27:02;0.40;;;0.40;;
15925;SDS011;8062;53.882;10.642;2023-08-31T01:28:22;0.30;;;0.30;;
15925;SDS011;8062;53.882;10.642;2023-08-31T01:29:42;0.30;;;0.30;;
15925;SDS011;8062;53.882;10.642;2023-08-31T01:31:04;0.27;;;0.27;;
15925;SDS011;8062;53.882;10.642;2023-08-31T01:32:27;0.40;;;0.40;;
15925;SDS011;8062;53.882;10.642;2023-08-31T01:33:48;0.40;;;0.40;;
15925;SDS011;8062;53.882;10.642;2023-08-31T01:35:08;0.30;;;0.30;;
15925;SDS011;8062;53.882;10.642;2023-08-31T01:36:30;0.20;;;0.20;;
15925;SDS011;8062;53.882;10.642;2023-08-31T01:37:56;0.40;;;0.40;;
15925;SDS011;8062;53.882;10.642;2023-08-31T01:39:41;0.30;;;0.30;;
15925;SDS011;8062;53.882;10.642;2023-08-31T01:41:07;0.40;;;0.40;;
15925;SDS011;8062;53.882;10.642;2023-08-31T01:42:32;0.40;;;0.40;;
15925;SDS011;8062;53.882;10.642;2023-08-31T01:43:52;0.30;;;0.30;;
15925;SDS011;8062;53.882;10.642;2023-08-31T01:45:14;0.30;;;0.30;;
15925;SDS011;8062;53.882;10.642;2023-08-31T01:46:37;0.30;;;0.30;;
15925;SDS011;8062;53.882;10.642;2023-08-31T01:47:57;0.30;;;0.30;;
15925;SDS011;8062;53.882;10.642;2023-08-31T01:49:16;0.37;;;0.37;;
15925;SDS011;8062;53.882;10.642;2023-08-31T01:50:36;0.30;;;0.30;;
15925;SDS011;8062;53.882;10.642;2023-08-31T01:51:56;0.20;;;0.20;;
15925;SDS011;8062;53.882;10.642;2023-08-31T01:53:16;0.40;;;0.40;;
15925;SDS011;8062;53.882;10.642;2023-08-31T01:54:35;0.37;;;0.37;;
15925;SDS011;8062;53.882;10.642;2023-08-31T01:55:56;0.30;;;0.30;;
15925;SDS011;8062;53.882;10.642;2023-08-31T01:57:16;0.40;;;0.40;;
15925;SDS011;8062;53.882;10.642;2023-08-31T01:58:54;0.40;;;0.40;;
15925;SDS011;8062;53.882;10.642;2023-08-31T02:00:14;0.33;;;0.33;;
15925;SDS011;8062;53.882;10.642;2023-08-31T02:01:34;0.30;;;0.30;;
15925;SDS011;8062;53.882;10.642;2023-08-31T02:02:55;0.30;;;0.30;;
15925;SDS011;8062;53.882;10.642;2023-08-31T02:04:15;0.20;;;0.20;;
15925;SDS011;8062;53.882;10.642;2023-08-31T02:05:34;0.20;;;0.20;;
15925;SDS011;8062;53.882;10.642;2023-08-31T02:06:54;0.30;;;0.30;;
15925;SDS011;8062;53.882;10.642;2023-08-31T02:08:14;0.20;;;0.20;;
15925;SDS011;8062;53.882;10.642;2023-08-31T02:09:37;0.30;;;0.30;;
15925;SDS011;8062;53.882;10.642;2023-08-31T02:10:57;0.40;;;0.40;;
15925;SDS011;8062;53.882;10.642;2023-08-31T02:12:17;0.40;;;0.40;;
15925;SDS011;8062;53.882;10.642;2023-08-31T02:13:36;0.30;;;0.30;;
15925;SDS011;8062;53.882;10.642;2023-08-31T02:14:56;0.20;;;0.20;;
15925;SDS011;8062;53.882;10.642;2023-08-31T02:16:16;0.30;;;0.30;;
15925;SDS011;8062;53.882;10.642;2023-08-31T02:17:36;0.40;;;0.40;;
15925;SDS011;8062;53.882;10.642;2023-08-31T02:18:55;0.47;;;0.47;;
15925;SDS011;8062;53.882;10.642;2023-08-31T02:20:15;0.27;;;0.27;;
15925;SDS011;8062;53.882;10.642;2023-08-31T02:21:35;0.30;;;0.30;;
15925;SDS011;8062;53.882;10.642;2023-08-31T02:22:55;0.30;;;0.30;;
15925;SDS011;8062;53.882;10.642;2023-08-31T02:24:14;0.40;;;0.40;;
15925;SDS011;8062;53.882;10.642;2023-08-31T02:25:34;0.40;;;0.40;;
15925;SDS011;8062;53.882;10.642;2023-08-31T02:26:54;0.30;;;0.30;;
15925;SDS011;8062;53.882;10.642;2023-08-31T02:28:14;0.40;;;0.40;;
15925;SDS011;8062;53.882;10.642;2023-08-31T02:29:37;0.40;;;0.40;;
15925;SDS011;8062;53.882;10.642;2023-08-31T02:30:59;0.30;;;0.30;;
15925;SDS011;8062;53.882;10.642;2023-08-31T02:32:23;0.40;;;0.40;;
15925;SDS011;8062;53.882;10.642;2023-08-31T02:33:42;0.43;;;0.43;;
15925;SDS011;8062;53.882;10.642;2023-08-31T02:35:02;0.40;;;0.40;;
15925;SDS011;8062;53.882;10.642;2023-08-31T02:36:22;0.40;;;0.40;;
15925;SDS011;8062;53.882;10.642;2023-08-31T02:37:41;0.40;;;0.40;;
15925;SDS011;8062;53.882;10.642;2023-08-31T02:39:01;0.40;;;0.40;;
15925;SDS011;8062;53.882;10.642;2023-08-31T02:40:22;0.50;;;0.50;;
15925;SDS011;8062;53.882;10.642;2023-08-31T02:41:42;0.23;;;0.23;;
15925;SDS011;8062;53.882;10.642;2023-08-31T02:43:02;0.30;;;0.30;;
15925;SDS011;8062;53.882;10.642;2023-08-31T02:44:22;0.30;;;0.30;;
15925;SDS011;8062;53.882;10.642;2023-08-31T02:45:41;0.30;;;0.30;;
15925;SDS011;8062;53.882;10.642;2023-08-31T02:47:01;0.30;;;0.30;;
15925;SDS011;8062;53.882;10.642;2023-08-31T02:48:21;0.30;;;0.30;;
15925;SDS011;8062;53.882;10.642;2023-08-31T02:49:40;0.30;;;0.30;;
15925;SDS011;8062;53.882;10.642;2023-08-31T02:51:00;0.30;;;0.30;;
15925;SDS011;8062;53.882;10.642;2023-08-31T02:52:20;0.40;;;0.40;;
15925;SDS011;8062;53.882;10.642;2023-08-31T02:53:39;0.40;;;0.40;;
15925;SDS011;8062;53.882;10.642;2023-08-31T02:54:59;0.47;;;0.47;;
15925;SDS011;8062;53.882;10.642;2023-08-31T02:56:19;0.40;;;0.40;;
15925;SDS011;8062;53.882;10.642;2023-08-31T02:57:38;0.40;;;0.40;;
15925;SDS011;8062;53.882;10.642;2023-08-31T02:58:58;0.40;;;0.40;;
15925;SDS011;8062;53.882;10.642;2023-08-31T03:00:18;0.30;;;0.30;;
15925;SDS011;8062;53.882;10.642;2023-08-31T03:01:40;0.30;;;0.30;;
15925;SDS011;8062;53.882;10.642;2023-08-31T03:03:00;0.40;;;0.40;;
15925;SDS011;8062;53.882;10.642;2023-08-31T03:04:19;0.30;;;0.30;;
15925;SDS011;8062;53.882;10.642;2023-08-31T03:05:39;0.40;;;0.40;;
15925;SDS011;8062;53.882;10.642;2023-08-31T03:06:59;0.30;;;0.30;;
15925;SDS011;8062;53.882;10.642;2023-08-31T03:08:18;0.30;;;0.30;;
15925;SDS011;8062;53.882;10.642;2023-08-31T03:09:38;0.30;;;0.30;;
15925;SDS011;8062;53.882;10.642;2023-08-31T03:10:58;0.40;;;0.40;;
15925;SDS011;8062;53.882;10.642;2023-08-31T03:12:17;0.30;;;0.30;;
15925;SDS011;8062;53.882;10.642;2023-08-31T03:13:37;0.30;;;0.30;;
15925;SDS011;8062;53.882;10.642;2023-08-31T03:14:58;0.30;;;0.30;;
15925;SDS011;8062;53.882;10.642;2023-08-31T03:16:18;0.30;;;0.30;;
15925;SDS011;8062;53.882;10.642;2023-08-31T03:17:37;0.47;;;0.47;;
15925;SDS011;8062;53.882;10.642;2023-08-31T03:18:57;0.50;;;0.50;;
15925;SDS011;8062;53.882;10.642;2023-08-31T03:20:17;0.30;;;0.30;;
15925;SDS011;8062;53.882;10.642;2023-08-31T03:21:36;0.33;;;0.33;;
15925;SDS011;8062;53.882;10.642;2023-08-31T03:22:56;0.37;;;0.37;;
15925;SDS011;8062;53.882;10.642;2023-08-31T03:24:16;0.30;;;0.30;;
15925;SDS011;8062;53.882;10.642;2023-08-31T03:25:36;0.43;;;0.43;;
15925;SDS011;8062;53.882;10.642;2023-08-31T03:26:56;0.37;;;0.37;;
15925;SDS011;8062;53.882;10.642;2023-08-31T03:28:15;0.40;;;0.40;;
15925;SDS011;8062;53.882;10.642;2023-08-31T03:29:35;0.23;;;0.23;;
15925;SDS011;8062;53.882;10.642;2023-08-31T03:30:55;0.30;;;0.30;;
15925;SDS011;8062;53.882;10.642;2023-08-31T03:32:15;0.33;;;0.33;;
15925;SDS011;8062;53.882;10.642;2023-08-31T03:33:35;0.30;;;0.30;;
15925;SDS011;8062;53.882;10.642;2023-08-31T03:34:54;0.40;;;0.40;;
15925;SDS011;8062;53.882;10.642;2023-08-31T03:36:14;0.33;;;0.33;;
15925;SDS011;8062;53.882;10.642;2023-08-31T03:37:34;0.30;;;0.30;;
15925;SDS011;8062;53.882;10.642;2023-08-31T03:38:53;0.30;;;0.30;;
15925;SDS011;8062;53.882;10.642;2023-08-31T03:40:13;0.50;;;0.50;;
15925;SDS011;8062;53.882;10.642;2023-08-31T03:41:33;0.30;;;0.30;;
15925;SDS011;8062;53.882;10.642;2023-08-31T03:42:54;0.40;;;0.40;;
15925;SDS011;8062;53.882;10.642;2023-08-31T03:44:14;0.43;;;0.43;;
15925;SDS011;8062;53.882;10.642;2023-08-31T03:45:34;0.30;;;0.30;;
15925;SDS011;8062;53.882;10.642;2023-08-31T03:46:54;0.40;;;0.40;;
15925;SDS011;8062;53.882;10.642;2023-08-31T03:48:14;0.20;;;0.20;;
15925;SDS011;8062;53.882;10.642;2023-08-31T03:49:34;0.30;;;0.30;;
15925;SDS011;8062;53.882;10.642;2023-08-31T03:50:54;0.40;;;0.40;;
15925;SDS011;8062;53.882;10.642;2023-08-31T03:52:15;0.40;;;0.40;;
15925;SDS011;8062;53.882;10.642;2023-08-31T03:53:35;0.30;;;0.30;;
15925;SDS011;8062;53.882;10.642;2023-08-31T03:54:55;0.30;;;0.30;;
15925;SDS011;8062;53.882;10.642;2023-08-31T03:56:15;0.40;;;0.40;;
15925;SDS011;8062;53.882;10.642;2023-08-31T03:57:37;0.43;;;0.43;;
15925;SDS011;8062;53.882;10.642;2023-08-31T03:59:05;0.40;;;0.40;;
15925;SDS011;8062;53.882;10.642;2023-08-31T04:00:25;0.50;;;0.50;;
15925;SDS011;8062;53.882;10.642;2023-08-31T04:01:45;0.40;;;0.40;;
15925;SDS011;8062;53.882;10.642;2023-08-31T04:03:07;0.30;;;0.30;;
15925;SDS011;8062;53.882;10.642;2023-08-31T04:04:28;0.30;;;0.30;;
15925;SDS011;8062;53.882;10.642;2023-08-31T04:05:48;0.40;;;0.40;;
15925;SDS011;8062;53.882;10.642;2023-08-31T04:07:13;0.40;;;0.40;;
15925;SDS011;8062;53.882;10.642;2023-08-31T04:08:32;0.40;;;0.40;;
15925;SDS011;8062;53.882;10.642;2023-08-31T04:09:56;0.50;;;0.50;;
15925;SDS011;8062;53.882;10.642;2023-08-31T04:11:16;0.30;;;0.30;;
15925;SDS011;8062;53.882;10.642;2023-08-31T04:12:36;0.50;;;0.50;;
15925;SDS011;8062;53.882;10.642;2023-08-31T04:13:55;0.30;;;0.30;;
15925;SDS011;8062;53.882;10.642;2023-08-31T04:15:15;0.40;;;0.40;;
15925;SDS011;8062;53.882;10.642;2023-08-31T04:16:34;0.50;;;0.50;;
15925;SDS011;8062;53.882;10.642;2023-08-31T04:17:54;0.40;;;0.40;;
15925;SDS011;8062;53.882;10.642;2023-08-31T04:19:14;0.30;;;0.30;;
15925;SDS011;8062;53.882;10.642;2023-08-31T04:20:33;0.40;;;0.40;;
15925;SDS011;8062;53.882;10.642;2023-08-31T04:21:53;0.40;;;0.40;;
15925;SDS011;8062;53.882;10.642;2023-08-31T04:23:13;0.40;;;0.40;;
15925;SDS011;8062;53.882;10.642;2023-08-31T04:24:32;0.50;;;0.50;;
15925;SDS011;8062;53.882;10.642;2023-08-31T04:25:52;0.40;;;0.40;;
15925;SDS011;8062;53.882;10.642;2023-08-31T04:27:12;0.30;;;0.30;;
15925;SDS011;8062;53.882;10.642;2023-08-31T04:28:32;0.40;;;0.40;;
15925;SDS011;8062;53.882;10.642;2023-08-31T04:29:51;0.50;;;0.50;;
15925;SDS011;8062;53.882;10.642;2023-08-31T04:31:11;0.40;;;0.40;;
15925;SDS011;8062;53.882;10.642;2023-08-31T04:32:31;0.47;;;0.47;;
15925;SDS011;8062;53.882;10.642;2023-08-31T04:33:50;0.40;;;0.40;;
15925;SDS011;8062;53.882;10.642;2023-08-31T04:35:12;0.40;;;0.40;;
15925;SDS011;8062;53.882;10.642;2023-08-31T04:36:33;0.50;;;0.50;;
15925;SDS011;8062;53.882;10.642;2023-08-31T04:37:52;0.40;;;0.40;;
15925;SDS011;8062;53.882;10.642;2023-08-31T04:39:12;0.53;;;0.53;;
15925;SDS011;8062;53.882;10.642;2023-08-31T04:40:31;0.40;;;0.40;;
15925;SDS011;8062;53.882;10.642;2023-08-31T04:41:51;0.47;;;0.47;;
15925;SDS011;8062;53.882;10.642;2023-08-31T04:43:11;0.57;;;0.57;;
15925;SDS011;8062;53.882;10.642;2023-08-31T04:44:30;0.43;;;0.43;;
15925;SDS011;8062;53.882;10.642;2023-08-31T04:45:53;0.40;;;0.40;;
15925;SDS011;8062;53.882;10.642;2023-08-31T04:47:13;0.40;;;0.40;;
15925;SDS011;8062;53.882;10.642;2023-08-31T04:48:33;0.40;;;0.40;;
15925;SDS011;8062;53.882;10.642;2023-08-31T04:49:53;0.50;;;0.50;;
15925;SDS011;8062;53.882;10.642;2023-08-31T04:51:31;0.40;;;0.40;;
15925;SDS011;8062;53.882;10.642;2023-08-31T04:52:51;0.57;;;0.57;;
15925;SDS011;8062;53.882;10.642;2023-08-31T04:54:11;0.60;;;0.60;;
15925;SDS011;8062;53.882;10.642;2023-08-31T04:55:30;0.50;;;0.50;;
15925;SDS011;8062;53.882;10.642;2023-08-31T04:56:50;0.40;;;0.40;;
15925;SDS011;8062;53.882;10.642;2023-08-31T04:58:10;0.60;;;0.60;;
15925;SDS011;8062;53.882;10.642;2023-08-31T04:59:29;0.60;;;0.60;;
15925;SDS011;8062;53.882;10.642;2023-08-31T05:00:49;0.60;;;0.60;;
15925;SDS011;8062;53.882;10.642;2023-08-31T05:02:10;0.50;;;0.50;;
15925;SDS011;8062;53.882;10.642;2023-08-31T05:03:29;0.50;;;0.50;;
15925;SDS011;8062;53.882;10.642;2023-08-31T05:04:49;0.57;;;0.57;;
15925;SDS011;8062;53.882;10.642;2023-08-31T05:06:10;0.50;;;0.50;;
15925;SDS011;8062;53.882;10.642;2023-08-31T05:07:30;0.40;;;0.40;;
15925;SDS011;8062;53.882;10.642;2023-08-31T05:08:49;0.50;;;0.50;;
15925;SDS011;8062;53.882;10.642;2023-08-31T05:10:09;0.50;;;0.50;;
15925;SDS011;8062;53.882;10.642;2023-08-31T05:11:29;0.50;;;0.50;;
15925;SDS011;8062;53.882;10.642;2023-08-31T05:12:49;0.50;;;0.50;;
15925;SDS011;8062;53.882;10.642;2023-08-31T05:14:08;0.50;;;0.50;;
15925;SDS011;8062;53.882;10.642;2023-08-31T05:15:28;0.70;;;0.70;;
15925;SDS011;8062;53.882;10.642;2023-08-31T05:16:48;0.57;;;0.57;;
15925;SDS011;8062;53.882;10.642;2023-08-31T05:18:08;0.57;;;0.57;;
15925;SDS011;8062;53.882;10.642;2023-08-31T05:19:28;0.57;;;0.57;;
15925;SDS011;8062;53.882;10.642;2023-08-31T05:20:48;0.53;;;0.53;;
15925;SDS011;8062;53.882;10.642;2023-08-31T05:22:10;0.50;;;0.50;;
15925;SDS011;8062;53.882;10.642;2023-08-31T05:23:30;0.50;;;0.50;;
15925;SDS011;8062;53.882;10.642;2023-08-31T05:24:49;0.50;;;0.50;;
15925;SDS011;8062;53.882;10.642;2023-08-31T05:26:09;0.60;;;0.60;;
15925;SDS011;8062;53.882;10.642;2023-08-31T05:27:29;0.40;;;0.40;;
15925;SDS011;8062;53.882;10.642;2023-08-31T05:28:49;0.47;;;0.47;;
15925;SDS011;8062;53.882;10.642;2023-08-31T05:30:08;0.50;;;0.50;;
15925;SDS011;8062;53.882;10.642;2023-08-31T05:31:28;0.40;;;0.40;;
15925;SDS011;8062;53.882;10.642;2023-08-31T05:32:48;0.50;;;0.50;;
15925;SDS011;8062;53.882;10.642;2023-08-31T05:34:09;0.40;;;0.40;;
15925;SDS011;8062;53.882;10.642;2023-08-31T05:35:29;0.40;;;0.40;;
15925;SDS011;8062;53.882;10.642;2023-08-31T05:36:49;0.53;;;0.53;;
15925;SDS011;8062;53.882;10.642;2023-08-31T05:38:09;0.50;;;0.50;;
15925;SDS011;8062;53.882;10.642;2023-08-31T05:39:29;0.50;;;0.50;;
15925;SDS011;8062;53.882;10.642;2023-08-31T05:40:49;0.37;;;0.37;;
15925;SDS011;8062;53.882;10.642;2023-08-31T05:42:08;0.50;;;0.50;;
15925;SDS011;8062;53.882;10.642;2023-08-31T05:43:28;0.50;;;0.50;;
15925;SDS011;8062;53.882;10.642;2023-08-31T05:44:48;0.40;;;0.40;;
15925;SDS011;8062;53.882;10.642;2023-08-31T05:46:08;0.50;;;0.50;;
15925;SDS011;8062;53.882;10.642;2023-08-31T05:47:28;0.40;;;0.40;;
15925;SDS011;8062;53.882;10.642;2023-08-31T05:48:47;0.60;;;0.60;;
15925;SDS011;8062;53.882;10.642;2023-08-31T05:50:07;0.50;;;0.50;;
15925;SDS011;8062;53.882;10.642;2023-08-31T05:51:26;0.47;;;0.47;;
15925;SDS011;8062;53.882;10.642;2023-08-31T05:52:46;0.40;;;0.40;;
15925;SDS011;8062;53.882;10.642;2023-08-31T05:54:06;0.40;;;0.40;;
15925;SDS011;8062;53.882;10.642;2023-08-31T05:55:30;0.40;;;0.40;;
15925;SDS011;8062;53.882;10.642;2023-08-31T05:56:51;0.50;;;0.50;;
15925;SDS011;8062;53.882;10.642;2023-08-31T05:58:11;0.47;;;0.47;;
15925;SDS011;8062;53.882;10.642;2023-08-31T05:59:31;0.50;;;0.50;;
15925;SDS011;8062;53.882;10.642;2023-08-31T06:00:50;0.47;;;0.47;;
15925;SDS011;8062;53.882;10.642;2023-08-31T06:02:10;0.30;;;0.30;;
15925;SDS011;8062;53.882;10.642;2023-08-31T06:03:30;0.50;;;0.50;;
15925;SDS011;8062;53.882;10.642;2023-08-31T06:04:50;0.60;;;0.60;;
15925;SDS011;8062;53.882;10.642;2023-08-31T06:06:10;0.40;;;0.40;;
15925;SDS011;8062;53.882;10.642;2023-08-31T06:07:29;0.40;;;0.40;;
15925;SDS011;8062;53.882;10.642;2023-08-31T06:08:49;0.30;;;0.30;;
15925;SDS011;8062;53.882;10.642;2023-08-31T06:10:08;0.40;;;0.40;;
15925;SDS011;8062;53.882;10.642;2023-08-31T06:11:28;0.43;;;0.43;;
15925;SDS011;8062;53.882;10.642;2023-08-31T06:12:48;0.30;;;0.30;;
15925;SDS011;8062;53.882;10.642;2023-08-31T06:14:08;0.50;;;0.50;;
15925;SDS011;8062;53.882;10.642;2023-08-31T06:15:28;0.30;;;0.30;;
15925;SDS011;8062;53.882;10.642;2023-08-31T06:16:48;0.30;;;0.30;;
15925;SDS011;8062;53.882;10.642;2023-08-31T06:18:08;0.40;;;0.40;;
15925;SDS011;8062;53.882;10.642;2023-08-31T06:19:27;0.40;;;0.40;;
15925;SDS011;8062;53.882;10.642;2023-08-31T06:20:48;0.40;;;0.40;;
15925;SDS011;8062;53.882;10.642;2023-08-31T06:22:08;0.53;;;0.53;;
15925;SDS011;8062;53.882;10.642;2023-08-31T06:23:28;0.40;;;0.40;;
15925;SDS011;8062;53.882;10.642;2023-08-31T06:24:47;0.50;;;0.50;;
15925;SDS011;8062;53.882;10.642;2023-08-31T06:26:07;0.40;;;0.40;;
15925;SDS011;8062;53.882;10.642;2023-08-31T06:27:27;0.40;;;0.40;;
15925;SDS011;8062;53.882;10.642;2023-08-31T06:28:46;0.63;;;0.63;;
15925;SDS011;8062;53.882;10.642;2023-08-31T06:30:06;0.40;;;0.40;;
15925;SDS011;8062;53.882;10.642;2023-08-31T06:31:27;0.40;;;0.40;;
15925;SDS011;8062;53.882;10.642;2023-08-31T06:32:47;0.30;;;0.30;;
15925;SDS011;8062;53.882;10.642;2023-08-31T06:34:08;0.40;;;0.40;;
15925;SDS011;8062;53.882;10.642;2023-08-31T06:35:28;0.30;;;0.30;;
15925;SDS011;8062;53.882;10.642;2023-08-31T06:36:48;0.53;;;0.53;;
15925;SDS011;8062;53.882;10.642;2023-08-31T06:38:07;0.40;;;0.40;;
15925;SDS011;8062;53.882;10.642;2023-08-31T06:39:27;0.40;;;0.40;;
15925;SDS011;8062;53.882;10.642;2023-08-31T06:40:47;0.40;;;0.40;;
15925;SDS011;8062;53.882;10.642;2023-08-31T06:42:07;0.50;;;0.50;;
15925;SDS011;8062;53.882;10.642;2023-08-31T06:43:26;0.40;;;0.40;;
15925;SDS011;8062;53.882;10.642;2023-08-31T06:44:46;0.43;;;0.43;;
15925;SDS011;8062;53.882;10.642;2023-08-31T06:46:05;0.40;;;0.40;;
15925;SDS011;8062;53.882;10.642;2023-08-31T06:47:25;0.40;;;0.40;;
15925;SDS011;8062;53.882;10.642;2023-08-31T06:48:44;0.40;;;0.40;;
15925;SDS011;8062;53.882;10.642;2023-08-31T06:50:04;0.70;;;0.70;;
15925;SDS011;8062;53.882;10.642;2023-08-31T06:51:25;0.50;;;0.50;;
15925;SDS011;8062;53.882;10.642;2023-08-31T06:52:45;1.33;;;1.33;;
15925;SDS011;8062;53.882;10.642;2023-08-31T06:54:05;5.27;;;4.97;;
15925;SDS011;8062;53.882;10.642;2023-08-31T06:55:25;12.73;;;11.93;;
15925;SDS011;8062;53.882;10.642;2023-08-31T06:56:44;15.10;;;14.10;;
15925;SDS011;8062;53.882;10.642;2023-08-31T06:58:04;19.07;;;17.97;;
15925;SDS011;8062;53.882;10.642;2023-08-31T06:59:24;23.80;;;22.50;;
15925;SDS011;8062;53.882;10.642;2023-08-31T07:00:43;8.60;;;8.07;;
15925;SDS011;8062;53.882;10.642;2023-08-31T07:02:03;0.53;;;0.53;;
15925;SDS011;8062;53.882;10.642;2023-08-31T07:03:23;0.20;;;0.20;;
15925;SDS011;8062;53.882;10.642;2023-08-31T07:04:42;0.10;;;0.10;;
15925;SDS011;8062;53.882;10.642;2023-08-31T07:06:02;0.10;;;0.10;;
15925;SDS011;8062;53.882;10.642;2023-08-31T07:07:22;0.10;;;0.10;;
15925;SDS011;8062;53.882;10.642;2023-08-31T07:08:42;0.10;;;0.10;;
15925;SDS011;8062;53.882;10.642;2023-08-31T07:10:04;0.20;;;0.20;;
15925;SDS011;8062;53.882;10.642;2023-08-31T07:11:24;0.20;;;0.20;;
15925;SDS011;8062;53.882;10.642;2023-08-31T07:12:45;0.20;;;0.20;;
15925;SDS011;8062;53.882;10.642;2023-08-31T07:14:04;0.10;;;0.10;;
15925;SDS011;8062;53.882;10.642;2023-08-31T07:15:24;0.20;;;0.20;;
15925;SDS011;8062;53.882;10.642;2023-08-31T07:16:44;0.20;;;0.20;;
15925;SDS011;8062;53.882;10.642;2023-08-31T07:18:04;0.20;;;0.20;;
15925;SDS011;8062;53.882;10.642;2023-08-31T07:19:23;0.10;;;0.10;;
15925;SDS011;8062;53.882;10.642;2023-08-31T07:20:45;0.20;;;0.20;;
15925;SDS011;8062;53.882;10.642;2023-08-31T07:22:04;0.20;;;0.20;;
15925;SDS011;8062;53.882;10.642;2023-08-31T07:23:25;0.10;;;0.10;;
15925;SDS011;8062;53.882;10.642;2023-08-31T07:24:44;0.20;;;0.20;;
15925;SDS011;8062;53.882;10.642;2023-08-31T07:26:04;0.10;;;0.10;;
15925;SDS011;8062;53.882;10.642;2023-08-31T07:27:23;0.10;;;0.10;;
15925;SDS011;8062;53.882;10.642;2023-08-31T07:28:43;0.20;;;0.20;;
15925;SDS011;8062;53.882;10.642;2023-08-31T07:30:03;0.20;;;0.20;;
15925;SDS011;8062;53.882;10.642;2023-08-31T07:31:24;0.20;;;0.20;;
15925;SDS011;8062;53.882;10.642;2023-08-31T07:32:43;0.20;;;0.20;;
15925;SDS011;8062;53.882;10.642;2023-08-31T07:34:04;0.10;;;0.10;;
15925;SDS011;8062;53.882;10.642;2023-08-31T07:35:24;0.20;;;0.20;;
15925;SDS011;8062;53.882;10.642;2023-08-31T07:36:43;0.23;;;0.23;;
15925;SDS011;8062;53.882;10.642;2023-08-31T07:38:03;0.20;;;0.20;;
15925;SDS011;8062;53.882;10.642;2023-08-31T07:39:22;0.17;;;0.17;;
15925;SDS011;8062;53.882;10.642;2023-08-31T07:40:42;0.10;;;0.10;;
15925;SDS011;8062;53.882;10.642;2023-08-31T07:42:02;0.10;;;0.10;;
15925;SDS011;8062;53.882;10.642;2023-08-31T07:43:21;0.20;;;0.20;;
15925;SDS011;8062;53.882;10.642;2023-08-31T07:44:41;0.10;;;0.10;;
15925;SDS011;8062;53.882;10.642;2023-08-31T07:46:01;0.10;;;0.10;;
15925;SDS011;8062;53.882;10.642;2023-08-31T07:47:20;0.20;;;0.20;;
15925;SDS011;8062;53.882;10.642;2023-08-31T07:48:41;0.20;;;0.20;;
15925;SDS011;8062;53.882;10.642;2023-08-31T07:50:01;0.20;;;0.20;;
15925;SDS011;8062;53.882;10.642;2023-08-31T07:51:21;0.10;;;0.10;;
15925;SDS011;8062;53.882;10.642;2023-08-31T07:52:42;0.10;;;0.10;;
15925;SDS011;8062;53.882;10.642;2023-08-31T07:54:01;0.20;;;0.20;;
15925;SDS011;8062;53.882;10.642;2023-08-31T07:55:22;0.20;;;0.20;;
15925;SDS011;8062;53.882;10.642;2023-08-31T07:56:42;0.10;;;0.10;;
15925;SDS011;8062;53.882;10.642;2023-08-31T07:58:02;0.10;;;0.10;;
15925;SDS011;8062;53.882;10.642;2023-08-31T07:59:22;0.13;;;0.13;;
15925;SDS011;8062;53.882;10.642;2023-08-31T08:00:41;0.20;;;0.20;;
15925;SDS011;8062;53.882;10.642;2023-08-31T08:02:01;0.10;;;0.10;;
15925;SDS011;8062;53.882;10.642;2023-08-31T08:03:21;0.10;;;0.10;;
15925;SDS011;8062;53.882;10.642;2023-08-31T08:04:41;0.10;;;0.10;;
15925;SDS011;8062;53.882;10.642;2023-08-31T08:06:01;0.10;;;0.10;;
15925;SDS011;8062;53.882;10.642;2023-08-31T08:07:20;0.15;;;0.15;;
15925;SDS011;8062;53.882;10.642;2023-08-31T08:08:40;0.10;;;0.10;;
15925;SDS011;8062;53.882;10.642;2023-08-31T08:10:00;0.10;;;0.10;;